createdAt,value
2023-05-10T00:01:34.509Z,4.05
2023-05-10T00:04:04.681Z,9.68
2023-05-10T00:06:34.636Z,7.03
2023-05-10T00:09:07.235Z,5.65
2023-05-10T00:11:37.248Z,8.52
2023-05-10T00:14:07.194Z,6.68
2023-05-10T00:16:36.928Z,5.82
2023-05-10T00:19:06.952Z,6.40
2023-05-10T00:21:37.352Z,5.80
2023-05-10T00:24:10.118Z,4.00
2023-05-10T00:26:40.177Z,6.22
2023-05-10T00:29:09.893Z,4.97
2023-05-10T00:31:39.679Z,4.30
2023-05-10T00:34:09.496Z,4.53
2023-05-10T00:36:39.472Z,9.70
2023-05-10T00:39:11.962Z,4.60
2023-05-10T00:41:41.660Z,7.55
2023-05-10T00:44:11.841Z,5.70
2023-05-10T00:46:41.754Z,5.28
2023-05-10T00:49:11.689Z,6.22
2023-05-10T00:51:43.976Z,5.88
2023-05-10T00:54:17.858Z,6.63
2023-05-10T00:56:50.170Z,6.18
2023-05-10T00:59:20.623Z,5.22
2023-05-10T01:01:50.728Z,6.43
2023-05-10T01:04:21.293Z,5.20
2023-05-10T01:06:51.212Z,5.82
2023-05-10T01:09:23.937Z,5.20
2023-05-10T01:11:54.741Z,4.97
2023-05-10T01:14:24.988Z,5.22
2023-05-10T01:16:56.174Z,8.57
2023-05-10T01:19:27.670Z,6.85
2023-05-10T01:22:02.556Z,7.57
2023-05-10T01:24:43.949Z,4.88
2023-05-10T01:27:19.951Z,6.55
2023-05-10T01:30:14.769Z,6.47
2023-05-10T01:32:51.657Z,6.20
2023-05-10T01:35:25.611Z,7.30
2023-05-10T01:37:57.840Z,5.68
2023-05-10T01:40:30.273Z,5.83
2023-05-10T01:43:04.013Z,6.38
2023-05-10T01:45:35.950Z,6.38
2023-05-10T01:48:13.248Z,7.13
2023-05-10T01:50:44.418Z,5.97
2023-05-10T01:53:15.444Z,5.25
2023-05-10T01:55:47.592Z,11.38
2023-05-10T01:58:19.026Z,4.20
2023-05-10T02:00:50.202Z,5.82
2023-05-10T02:03:24.481Z,5.70
2023-05-10T02:05:56.259Z,4.90
2023-05-10T02:08:26.730Z,9.73
2023-05-10T02:10:59.668Z,5.88
2023-05-10T02:13:31.304Z,5.78
2023-05-10T02:16:01.701Z,5.97
2023-05-10T02:18:35.539Z,9.27
2023-05-10T02:21:05.907Z,6.80
2023-05-10T02:23:36.538Z,6.15
2023-05-10T02:26:07.459Z,8.30
2023-05-10T02:28:39.036Z,9.52
2023-05-10T02:31:11.000Z,4.15
2023-05-10T02:33:44.194Z,13.05
2023-05-10T02:36:15.141Z,10.50
2023-05-10T02:38:44.875Z,5.88
2023-05-10T02:41:15.121Z,7.50
2023-05-10T02:43:46.050Z,9.88
2023-05-10T02:46:15.847Z,5.47
2023-05-10T02:48:48.205Z,6.57
2023-05-10T02:51:20.957Z,4.75
2023-05-10T02:53:52.118Z,3.88
2023-05-10T02:56:26.426Z,5.10
2023-05-10T02:58:56.250Z,5.72
2023-05-10T03:01:26.205Z,9.73
2023-05-10T03:03:58.496Z,6.43
2023-05-10T03:06:29.855Z,4.30
2023-05-10T03:08:59.889Z,4.80
2023-05-10T03:11:35.888Z,4.68
2023-05-10T03:14:14.066Z,4.45
2023-05-10T03:16:48.052Z,4.03
2023-05-10T03:19:26.374Z,5.72
2023-05-10T03:21:57.277Z,5.55
2023-05-10T03:24:28.215Z,7.18
2023-05-10T03:26:59.481Z,5.32
2023-05-10T03:29:29.883Z,7.25
2023-05-10T03:31:59.626Z,6.60
2023-05-10T03:34:33.972Z,4.13
2023-05-10T03:37:03.773Z,5.25
2023-05-10T03:39:33.524Z,4.68
2023-05-10T03:42:03.226Z,7.82
2023-05-10T03:44:34.361Z,7.32
2023-05-10T03:47:04.574Z,6.95
2023-05-10T03:49:37.030Z,5.22
2023-05-10T03:52:06.941Z,5.00
2023-05-10T03:54:36.619Z,7.05
2023-05-10T03:57:07.125Z,6.60
2023-05-10T03:59:37.000Z,6.38
2023-05-10T04:02:06.737Z,4.80
2023-05-10T04:04:39.067Z,3.97
2023-05-10T04:07:09.108Z,7.32
2023-05-10T04:09:38.847Z,4.05
2023-05-10T04:12:10.822Z,6.07
2023-05-10T04:14:41.106Z,4.18
2023-05-10T04:17:11.726Z,11.68
2023-05-10T04:19:44.224Z,7.30
2023-05-10T04:22:13.959Z,8.30
2023-05-10T04:24:43.704Z,16.63
2023-05-10T04:27:13.443Z,11.65
2023-05-10T04:29:43.172Z,22.63
2023-05-10T04:32:13.121Z,14.05
2023-05-10T04:34:45.413Z,8.88
2023-05-10T04:37:15.128Z,7.03
2023-05-10T04:39:44.913Z,6.35
2023-05-10T04:42:16.104Z,12.73
2023-05-10T04:44:45.842Z,6.40
2023-05-10T04:47:15.885Z,7.53
2023-05-10T04:49:48.188Z,8.60
2023-05-10T04:52:19.321Z,6.15
2023-05-10T04:54:49.034Z,7.53
2023-05-10T04:57:19.040Z,5.38
2023-05-10T04:59:50.251Z,5.25
2023-05-10T05:02:20.497Z,7.28
2023-05-10T05:04:52.849Z,7.07
2023-05-10T05:07:22.585Z,9.65
2023-05-10T05:09:52.314Z,7.57
2023-05-10T05:12:22.279Z,7.45
2023-05-10T05:14:51.971Z,7.38
2023-05-10T05:17:21.694Z,11.20
2023-05-10T05:19:54.166Z,8.45
2023-05-10T05:22:28.560Z,4.93
2023-05-10T05:24:59.441Z,6.75
2023-05-10T05:27:29.343Z,16.67
2023-05-10T05:29:59.437Z,5.93
2023-05-10T05:32:29.405Z,8.77
2023-05-10T05:35:01.740Z,7.32
2023-05-10T05:37:31.534Z,4.93
2023-05-10T05:40:02.841Z,6.78
2023-05-10T05:42:32.731Z,11.48
2023-05-10T05:45:02.831Z,7.82
2023-05-10T05:47:32.768Z,9.40
2023-05-10T05:50:05.166Z,8.43
2023-05-10T05:52:35.186Z,9.05
2023-05-10T05:55:04.890Z,6.75
2023-05-10T05:57:35.086Z,9.38
2023-05-10T06:00:05.387Z,10.13
2023-05-10T06:02:35.534Z,9.27
2023-05-10T06:05:08.878Z,8.18
2023-05-10T06:07:38.638Z,6.38
2023-05-10T06:10:09.466Z,11.23
2023-05-10T06:12:39.334Z,9.80
2023-05-10T06:15:09.723Z,10.98
2023-05-10T06:17:40.042Z,8.77
2023-05-10T06:20:13.189Z,18.13
2023-05-10T06:25:13.115Z,11.50
2023-05-10T06:27:42.818Z,9.60
2023-05-10T06:30:14.573Z,7.70
2023-05-10T06:32:45.111Z,10.15
2023-05-10T06:35:17.987Z,10.52
2023-05-10T06:37:47.888Z,9.57
2023-05-10T06:40:17.978Z,6.50
2023-05-10T06:42:48.679Z,8.25
2023-05-10T06:45:18.985Z,7.90
2023-05-10T06:47:49.198Z,7.68
2023-05-10T06:50:21.655Z,5.18
2023-05-10T06:52:53.078Z,4.10
2023-05-10T06:55:23.300Z,4.47
2023-05-10T06:57:53.160Z,5.88
2023-05-10T07:00:23.571Z,6.35
2023-05-10T07:02:53.641Z,4.40
2023-05-10T07:05:26.127Z,4.78
2023-05-10T07:07:55.884Z,11.50
2023-05-10T07:10:25.817Z,4.72
2023-05-10T07:12:55.573Z,4.30
2023-05-10T07:15:25.823Z,7.75
2023-05-10T07:17:56.196Z,3.78
2023-05-10T07:20:28.574Z,4.30
2023-05-10T07:22:58.292Z,4.35
2023-05-10T07:25:28.030Z,5.18
2023-05-10T07:27:57.771Z,4.55
2023-05-10T07:30:27.786Z,5.45
2023-05-10T07:32:57.560Z,5.80
2023-05-10T07:35:30.143Z,7.93
2023-05-10T07:37:59.963Z,13.40
2023-05-10T07:40:30.000Z,5.38
2023-05-10T07:43:01.040Z,4.13
2023-05-10T07:45:30.846Z,9.10
2023-05-10T07:48:00.660Z,3.92
2023-05-10T07:50:33.069Z,4.70
2023-05-10T07:53:02.762Z,7.55
2023-05-10T07:55:32.594Z,5.95
2023-05-10T07:58:02.359Z,4.30
2023-05-10T08:00:32.126Z,8.00
2023-05-10T08:03:01.987Z,4.35
2023-05-10T08:05:35.767Z,3.75
2023-05-10T08:08:05.748Z,4.40
2023-05-10T08:10:35.583Z,4.82
2023-05-10T08:13:05.526Z,3.78
2023-05-10T08:15:35.315Z,10.05
2023-05-10T08:18:05.432Z,5.15
2023-05-10T08:20:37.906Z,3.05
2023-05-10T08:23:07.832Z,3.60
2023-05-10T08:25:37.549Z,4.93
2023-05-10T08:28:09.233Z,3.08
2023-05-10T08:30:39.725Z,5.18
2023-05-10T08:33:09.676Z,3.63
2023-05-10T08:35:42.648Z,4.15
2023-05-10T08:38:12.580Z,3.95
2023-05-10T08:40:45.262Z,4.88
2023-05-10T08:43:16.463Z,5.43
2023-05-10T08:45:48.182Z,5.10
2023-05-10T08:48:18.176Z,3.45
2023-05-10T08:50:51.697Z,4.40
2023-05-10T08:53:23.697Z,5.43
2023-05-10T08:55:53.877Z,5.55
2023-05-10T08:58:23.931Z,4.35
2023-05-10T09:00:54.734Z,3.90
2023-05-10T09:03:24.698Z,5.63
2023-05-10T09:05:57.096Z,4.90
2023-05-10T09:08:27.434Z,4.32
2023-05-10T09:10:58.236Z,7.03
2023-05-10T09:13:28.531Z,4.95
2023-05-10T09:16:02.140Z,4.18
2023-05-10T09:18:37.013Z,8.57
2023-05-10T09:21:09.527Z,3.92
2023-05-10T09:23:39.211Z,7.50
2023-05-10T09:26:09.542Z,6.60
2023-05-10T09:28:54.083Z,3.10
2023-05-10T09:31:24.868Z,5.55
2023-05-10T09:33:55.090Z,5.95
2023-05-10T09:36:28.058Z,5.22
2023-05-10T09:38:57.828Z,4.32
2023-05-10T09:41:27.945Z,4.80
2023-05-10T09:43:59.343Z,2.92
2023-05-10T09:46:29.449Z,3.40
2023-05-10T09:48:59.168Z,4.50
2023-05-10T09:51:31.527Z,3.90
2023-05-10T09:54:12.930Z,5.38
2023-05-10T09:56:42.856Z,4.03
2023-05-10T09:59:15.005Z,6.35
2023-05-10T10:01:45.294Z,3.80
2023-05-10T10:04:15.095Z,4.80
2023-05-10T10:06:47.420Z,4.90
2023-05-10T10:09:22.282Z,4.03
2023-05-10T10:11:52.176Z,3.03
2023-05-10T10:14:22.198Z,3.80
2023-05-10T10:17:05.909Z,8.63
2023-05-10T10:19:38.612Z,5.65
2023-05-10T10:22:12.901Z,7.25
2023-05-10T10:24:43.504Z,2.88
2023-05-10T10:27:18.432Z,2.72
2023-05-10T10:30:05.376Z,2.40
2023-05-10T10:32:42.064Z,4.65
2023-05-10T10:35:12.254Z,2.40
2023-05-10T10:37:49.098Z,1.85
2023-05-10T10:40:28.991Z,0.88
2023-05-10T10:42:59.227Z,1.52
2023-05-10T10:45:29.075Z,0.60
2023-05-10T10:48:13.870Z,0.73
2023-05-10T10:50:49.914Z,1.08
2023-05-10T10:53:22.633Z,0.60
2023-05-10T10:55:52.808Z,1.08
2023-05-10T10:58:33.415Z,0.50
2023-05-10T11:01:16.539Z,0.85
2023-05-10T11:03:59.104Z,0.40
2023-05-10T11:06:33.207Z,0.60
2023-05-10T11:09:09.309Z,1.42
2023-05-10T11:11:39.231Z,2.13
2023-05-10T11:14:09.891Z,0.90
2023-05-10T11:16:44.882Z,1.10
2023-05-10T11:19:15.305Z,0.70
2023-05-10T11:21:49.512Z,2.58
2023-05-10T11:24:22.638Z,1.20
2023-05-10T11:29:22.268Z,1.45
2023-05-10T11:31:52.624Z,1.30
2023-05-10T11:34:28.968Z,2.80
2023-05-10T11:36:59.028Z,2.38
2023-05-10T11:39:33.057Z,1.33
2023-05-10T11:42:02.944Z,1.23
2023-05-10T11:44:33.436Z,1.20
2023-05-10T11:47:04.373Z,0.93
2023-05-10T11:49:34.218Z,1.17
2023-05-10T11:52:12.198Z,2.38
2023-05-10T11:54:48.426Z,0.93
2023-05-10T11:57:18.186Z,0.88
2023-05-10T11:59:47.893Z,2.13
2023-05-10T12:02:18.014Z,0.73
2023-05-10T12:04:47.862Z,1.10
2023-05-10T12:07:17.620Z,1.90
2023-05-10T12:10:05.995Z,1.83
2023-05-10T12:12:43.339Z,1.30
2023-05-10T12:15:16.643Z,2.35
2023-05-10T12:17:47.657Z,2.65
2023-05-10T12:20:18.794Z,2.30
2023-05-10T12:22:49.855Z,2.53
2023-05-10T12:25:22.546Z,1.77
2023-05-10T12:27:52.809Z,1.08
2023-05-10T12:30:26.014Z,2.00
2023-05-10T12:32:56.028Z,8.93
2023-05-10T12:35:26.247Z,1.58
2023-05-10T12:37:56.022Z,2.88
2023-05-10T12:40:28.431Z,1.55
2023-05-10T12:42:58.415Z,1.20
2023-05-10T12:45:28.268Z,0.80
2023-05-10T12:47:58.045Z,1.40
2023-05-10T12:50:28.064Z,1.08
2023-05-10T12:52:57.771Z,1.27
2023-05-10T12:55:30.141Z,1.63
2023-05-10T12:57:59.827Z,1.02
2023-05-10T13:00:29.549Z,1.05
2023-05-10T13:02:59.322Z,1.10
2023-05-10T13:05:29.153Z,1.85
2023-05-10T13:07:58.978Z,1.25
2023-05-10T13:10:32.190Z,1.25
2023-05-10T13:13:02.395Z,1.30
2023-05-10T13:15:32.105Z,2.63
2023-05-10T13:18:01.833Z,1.77
2023-05-10T13:20:31.776Z,1.92
2023-05-10T13:23:01.485Z,1.60
2023-05-10T13:25:35.516Z,0.98
2023-05-10T13:28:05.515Z,1.30
2023-05-10T13:30:35.572Z,1.20
2023-05-10T13:33:05.681Z,3.20
2023-05-10T13:35:35.407Z,1.60
2023-05-10T13:38:05.328Z,1.08
2023-05-10T13:40:37.608Z,3.90
2023-05-10T13:43:07.304Z,2.95
2023-05-10T13:45:37.021Z,2.13
2023-05-10T13:48:07.081Z,1.63
2023-05-10T13:50:36.849Z,1.52
2023-05-10T13:53:06.582Z,1.58
2023-05-10T13:55:38.885Z,1.10
2023-05-10T13:58:08.883Z,1.40
2023-05-10T14:00:38.556Z,1.52
2023-05-10T14:03:10.568Z,2.72
2023-05-10T14:05:40.700Z,1.42
2023-05-10T14:08:10.595Z,1.30
2023-05-10T14:10:43.095Z,2.45
2023-05-10T14:13:13.343Z,0.90
2023-05-10T14:15:43.319Z,1.90
2023-05-10T14:18:13.032Z,1.92
2023-05-10T14:20:42.741Z,2.78
2023-05-10T14:23:12.793Z,1.60
2023-05-10T14:25:45.144Z,4.13
2023-05-10T14:28:15.661Z,1.40
2023-05-10T14:30:45.393Z,4.68
2023-05-10T14:33:15.197Z,1.15
2023-05-10T14:35:44.908Z,1.30
2023-05-10T14:38:14.638Z,1.38
2023-05-10T14:40:46.954Z,1.63
2023-05-10T14:43:16.675Z,0.88
2023-05-10T14:45:46.679Z,1.10
2023-05-10T14:48:18.419Z,2.47
2023-05-10T14:50:50.812Z,0.85
2023-05-10T14:53:20.716Z,1.52
2023-05-10T14:55:53.425Z,1.77
2023-05-10T14:58:23.200Z,1.52
2023-05-10T15:00:53.327Z,0.90
2023-05-10T15:03:23.607Z,1.00
2023-05-10T15:05:54.292Z,0.90
2023-05-10T15:08:25.019Z,1.58
2023-05-10T15:10:57.395Z,2.50
2023-05-10T15:13:27.322Z,2.05
2023-05-10T15:15:57.352Z,1.77
2023-05-10T15:18:27.549Z,1.13
2023-05-10T15:20:57.329Z,0.90
2023-05-10T15:23:27.347Z,0.75
2023-05-10T15:25:59.649Z,1.20
2023-05-10T15:28:29.336Z,0.82
2023-05-10T15:30:59.361Z,0.47
2023-05-10T15:33:29.153Z,2.10
2023-05-10T15:35:58.927Z,1.52
2023-05-10T15:38:28.816Z,3.92
2023-05-10T15:41:01.502Z,3.58
2023-05-10T15:43:31.204Z,3.70
2023-05-10T15:46:00.942Z,2.80
2023-05-10T15:48:32.475Z,1.23
2023-05-10T15:51:02.496Z,1.63
2023-05-10T15:53:32.186Z,1.40
2023-05-10T15:56:05.179Z,2.15
2023-05-10T16:01:06.246Z,0.90
2023-05-10T16:03:37.506Z,1.65
2023-05-10T16:06:07.581Z,2.30
2023-05-10T16:08:37.258Z,1.45
2023-05-10T16:11:10.216Z,0.88
2023-05-10T16:13:39.919Z,1.63
2023-05-10T16:16:10.260Z,0.75
2023-05-10T16:18:40.369Z,0.93
2023-05-10T16:21:10.403Z,0.82
2023-05-10T16:23:40.364Z,0.80
2023-05-10T16:26:12.974Z,2.03
2023-05-10T16:28:42.731Z,1.40
2023-05-10T16:31:15.277Z,0.90
2023-05-10T16:33:45.215Z,0.50
2023-05-10T16:36:14.897Z,0.90
2023-05-10T16:38:44.633Z,1.75
2023-05-10T16:41:17.158Z,1.00
2023-05-10T16:43:46.867Z,3.80
2023-05-10T16:46:16.655Z,1.05
2023-05-10T16:48:47.077Z,0.70
2023-05-10T16:51:16.877Z,0.47
2023-05-10T16:53:46.563Z,0.77
2023-05-10T16:56:21.959Z,1.02
2023-05-10T16:58:52.247Z,1.20
2023-05-10T17:01:23.261Z,5.85
2023-05-10T17:03:54.807Z,0.60
2023-05-10T17:06:24.776Z,0.80
2023-05-10T17:08:54.589Z,1.33
2023-05-10T17:11:27.743Z,3.00
2023-05-10T17:13:57.790Z,0.77
2023-05-10T17:16:27.596Z,2.15
2023-05-10T17:18:57.726Z,3.00
2023-05-10T17:21:27.790Z,0.77
2023-05-10T17:23:57.493Z,0.80
2023-05-10T17:26:30.648Z,1.77
2023-05-10T17:29:00.488Z,0.70
2023-05-10T17:31:30.569Z,0.85
2023-05-10T17:34:00.316Z,1.73
2023-05-10T17:36:30.247Z,0.60
2023-05-10T17:39:00.114Z,2.75
2023-05-10T17:41:32.720Z,1.10
2023-05-10T17:44:02.380Z,1.73
2023-05-10T17:46:32.840Z,1.08
2023-05-10T17:49:02.555Z,1.17
2023-05-10T17:51:32.980Z,1.80
2023-05-10T17:54:02.701Z,4.78
2023-05-10T17:56:35.019Z,9.20
2023-05-10T17:59:05.549Z,6.75
2023-05-10T18:01:35.389Z,10.65
2023-05-10T18:04:06.290Z,18.90
2023-05-10T18:06:38.396Z,5.18
2023-05-10T18:09:08.659Z,2.25
2023-05-10T18:11:40.947Z,2.88
2023-05-10T18:14:10.729Z,9.73
2023-05-10T18:16:40.458Z,6.78
2023-05-10T18:19:10.296Z,5.22
2023-05-10T18:21:40.598Z,3.45
2023-05-10T18:24:11.128Z,2.30
2023-05-10T18:26:43.442Z,4.10
2023-05-10T18:29:13.172Z,4.35
2023-05-10T18:31:43.054Z,4.20
2023-05-10T18:34:13.481Z,7.57
2023-05-10T18:36:43.985Z,6.78
2023-05-10T18:39:13.978Z,6.80
2023-05-10T18:41:46.384Z,3.00
2023-05-10T18:44:16.371Z,4.32
2023-05-10T18:46:46.551Z,6.13
2023-05-10T18:49:16.525Z,7.40
2023-05-10T18:51:46.430Z,4.03
2023-05-10T18:54:17.115Z,6.35
2023-05-10T18:56:50.111Z,7.40
2023-05-10T18:59:19.807Z,5.07
2023-05-10T19:01:51.167Z,2.65
2023-05-10T19:04:21.474Z,2.95
2023-05-10T19:06:51.480Z,6.68
2023-05-10T19:09:21.293Z,3.10
2023-05-10T19:11:53.691Z,2.15
2023-05-10T19:14:25.360Z,4.43
2023-05-10T19:16:55.622Z,4.03
2023-05-10T19:19:25.901Z,3.60
2023-05-10T19:21:56.365Z,2.47
2023-05-10T19:24:26.192Z,4.47
2023-05-10T19:26:58.560Z,6.85
2023-05-10T19:29:28.556Z,3.17
2023-05-10T19:31:58.498Z,6.03
2023-05-10T19:34:29.899Z,2.95
2023-05-10T19:36:59.752Z,4.95
2023-05-10T19:39:31.347Z,2.95
2023-05-10T19:42:05.490Z,3.35
2023-05-10T19:44:35.255Z,3.00
2023-05-10T19:47:05.492Z,3.85
2023-05-10T19:49:36.386Z,4.63
2023-05-10T19:52:08.307Z,3.75
2023-05-10T19:54:38.303Z,3.45
2023-05-10T19:57:12.076Z,3.25
2023-05-10T19:59:43.159Z,5.32
2023-05-10T20:02:13.096Z,4.00
2023-05-10T20:04:42.897Z,4.20
2023-05-10T20:07:12.604Z,5.20
2023-05-10T20:09:42.335Z,3.67
2023-05-10T20:12:14.947Z,6.40
2023-05-10T20:14:44.688Z,5.05
2023-05-10T20:17:14.625Z,7.50
2023-05-10T20:19:44.313Z,6.13
2023-05-10T20:22:14.215Z,4.90
2023-05-10T20:24:43.950Z,7.43
2023-05-10T20:27:16.576Z,4.20
2023-05-10T20:29:46.341Z,4.70
2023-05-10T20:32:16.074Z,5.60
2023-05-10T20:34:45.976Z,4.10
2023-05-10T20:37:17.894Z,3.63
2023-05-10T20:39:50.247Z,2.75
2023-05-10T20:42:22.858Z,6.47
2023-05-10T20:44:53.154Z,4.03
2023-05-10T20:47:23.714Z,3.70
2023-05-10T20:49:53.430Z,5.13
2023-05-10T20:52:24.689Z,5.18
2023-05-10T20:54:54.488Z,4.32
2023-05-10T20:57:26.823Z,5.90
2023-05-10T20:59:57.785Z,5.00
2023-05-10T21:02:27.605Z,5.00
2023-05-10T21:04:58.232Z,4.45
2023-05-10T21:07:28.253Z,4.95
2023-05-10T21:09:58.162Z,4.43
2023-05-10T21:12:30.775Z,6.28
2023-05-10T21:15:00.613Z,5.18
2023-05-10T21:17:30.616Z,5.45
2023-05-10T21:20:00.402Z,3.33
2023-05-10T21:22:30.333Z,6.22
2023-05-10T21:25:00.017Z,5.82
2023-05-10T21:27:32.752Z,5.15
2023-05-10T21:30:02.566Z,4.18
2023-05-10T21:32:32.611Z,4.15
2023-05-10T21:35:02.616Z,3.25
2023-05-10T21:37:32.568Z,3.65
2023-05-10T21:40:02.312Z,3.95
2023-05-10T21:42:35.049Z,2.97
2023-05-10T21:45:04.737Z,3.30
2023-05-10T21:47:34.925Z,3.78
2023-05-10T21:50:04.917Z,3.90
2023-05-10T21:52:34.615Z,6.75
2023-05-10T21:55:04.460Z,4.78
2023-05-10T21:57:37.310Z,7.47
2023-05-10T22:00:07.785Z,4.00
2023-05-10T22:02:37.764Z,3.90
2023-05-10T22:05:07.963Z,3.70
2023-05-10T22:07:37.905Z,4.80
2023-05-10T22:10:08.115Z,3.55
2023-05-10T22:12:40.532Z,3.40
2023-05-10T22:15:11.324Z,6.40
2023-05-10T22:17:41.464Z,3.55
2023-05-10T22:20:12.001Z,3.78
2023-05-10T22:22:41.973Z,3.80
2023-05-10T22:25:11.875Z,5.05
2023-05-10T22:27:44.519Z,6.35
2023-05-10T22:30:14.832Z,5.40
2023-05-10T22:32:44.948Z,2.45
2023-05-10T22:35:14.767Z,3.42
2023-05-10T22:37:44.706Z,3.35
2023-05-10T22:40:15.195Z,5.05
2023-05-10T22:42:47.581Z,3.58
2023-05-10T22:45:17.691Z,4.40
2023-05-10T22:47:47.446Z,3.58
2023-05-10T22:50:17.377Z,6.13
2023-05-10T22:52:47.611Z,3.97
2023-05-10T22:55:17.386Z,5.07
2023-05-10T22:57:49.743Z,4.43
2023-05-10T23:00:19.878Z,4.65
2023-05-10T23:02:50.245Z,3.45
2023-05-10T23:05:20.555Z,5.40
2023-05-10T23:07:53.792Z,5.15
2023-05-10T23:10:23.540Z,3.83
2023-05-10T23:12:56.356Z,3.58
2023-05-10T23:15:26.392Z,4.85
2023-05-10T23:17:56.184Z,3.55
2023-05-10T23:20:26.113Z,3.85
2023-05-10T23:22:56.832Z,5.00
2023-05-10T23:25:26.782Z,4.25
2023-05-10T23:27:59.095Z,5.60
2023-05-10T23:30:28.829Z,5.88
2023-05-10T23:32:58.786Z,7.18
2023-05-10T23:35:28.702Z,7.35
2023-05-10T23:37:58.432Z,6.50
2023-05-10T23:40:28.496Z,6.45
2023-05-10T23:43:00.735Z,5.35
2023-05-10T23:45:30.653Z,4.97
2023-05-10T23:48:00.397Z,5.18
2023-05-10T23:50:30.292Z,6.47
2023-05-10T23:52:59.974Z,6.47
2023-05-10T23:55:30.252Z,7.68
2023-05-10T23:58:02.554Z,5.53
